sensor_id;sensor_type;location;lat;lon;timestamp;temperature;humidity
9977;DHT22;5029;47.378;11.776;2023-02-28T00:03:10;-3.60;99.90
9977;DHT22;5029;47.378;11.776;2023-02-28T00:08:13;-3.60;99.90
9977;DHT22;5029;47.378;11.776;2023-02-28T00:13:18;-3.60;99.90
9977;DHT22;5029;47.378;11.776;2023-02-28T00:18:21;-3.50;99.90
9977;DHT22;5029;47.378;11.776;2023-02-28T00:23:24;-3.40;99.90
9977;DHT22;5029;47.378;11.776;2023-02-28T00:28:29;-3.40;99.90
9977;DHT22;5029;47.378;11.776;2023-02-28T00:33:33;-3.60;99.90
9977;DHT22;5029;47.378;11.776;2023-02-28T00:38:36;-3.50;99.90
9977;DHT22;5029;47.378;11.776;2023-02-28T00:43:41;-3.60;99.90
9977;DHT22;5029;47.378;11.776;2023-02-28T00:48:45;-3.70;99.90
9977;DHT22;5029;47.378;11.776;2023-02-28T00:53:48;-3.50;99.90
9977;DHT22;5029;47.378;11.776;2023-02-28T00:58:53;-4.00;99.90
9977;DHT22;5029;47.378;11.776;2023-02-28T01:03:56;-4.00;99.90
9977;DHT22;5029;47.378;11.776;2023-02-28T01:09:00;-4.10;99.90
9977;DHT22;5029;47.378;11.776;2023-02-28T01:14:04;-4.40;99.90
9977;DHT22;5029;47.378;11.776;2023-02-28T01:19:08;-4.20;99.90
9977;DHT22;5029;47.378;11.776;2023-02-28T01:24:11;-4.30;99.90
9977;DHT22;5029;47.378;11.776;2023-02-28T01:29:16;-4.30;99.90
9977;DHT22;5029;47.378;11.776;2023-02-28T01:34:19;-4.50;99.90
9977;DHT22;5029;47.378;11.776;2023-02-28T01:39:23;-4.30;99.90
9977;DHT22;5029;47.378;11.776;2023-02-28T01:44:57;-4.30;99.90
9977;DHT22;5029;47.378;11.776;2023-02-28T01:50:04;-4.60;99.90
9977;DHT22;5029;47.378;11.776;2023-02-28T01:55:10;-4.60;99.90
9977;DHT22;5029;47.378;11.776;2023-02-28T02:00:17;-4.70;99.90
9977;DHT22;5029;47.378;11.776;2023-02-28T02:05:23;-4.60;99.90
9977;DHT22;5029;47.378;11.776;2023-02-28T02:10:30;-4.50;99.90
9977;DHT22;5029;47.378;11.776;2023-02-28T02:15:41;-4.70;99.90
9977;DHT22;5029;47.378;11.776;2023-02-28T02:21:12;-4.70;99.90
9977;DHT22;5029;47.378;11.776;2023-02-28T02:32:41;-4.60;99.90
9977;DHT22;5029;47.378;11.776;2023-02-28T02:37:52;-4.30;99.90
9977;DHT22;5029;47.378;11.776;2023-02-28T02:43:02;-4.30;99.90
9977;DHT22;5029;47.378;11.776;2023-02-28T02:48:09;-4.70;99.90
9977;DHT22;5029;47.378;11.776;2023-02-28T02:53:18;-4.70;99.90
9977;DHT22;5029;47.378;11.776;2023-02-28T02:58:26;-4.80;99.90
9977;DHT22;5029;47.378;11.776;2023-02-28T03:03:33;-4.20;99.90
9977;DHT22;5029;47.378;11.776;2023-02-28T03:08:38;-4.60;99.90
9977;DHT22;5029;47.378;11.776;2023-02-28T03:13:59;-4.80;99.90
9977;DHT22;5029;47.378;11.776;2023-02-28T03:24:45;-4.90;99.90
9977;DHT22;5029;47.378;11.776;2023-02-28T03:29:58;-5.10;99.90
9977;DHT22;5029;47.378;11.776;2023-02-28T03:35:07;-5.20;99.90
9977;DHT22;5029;47.378;11.776;2023-02-28T03:40:17;-5.00;99.90
9977;DHT22;5029;47.378;11.776;2023-02-28T03:45:25;-5.20;99.90
9977;DHT22;5029;47.378;11.776;2023-02-28T03:50:34;-5.10;99.90
9977;DHT22;5029;47.378;11.776;2023-02-28T03:55:42;-4.80;99.90
9977;DHT22;5029;47.378;11.776;2023-02-28T04:00:51;-5.10;99.90
9977;DHT22;5029;47.378;11.776;2023-02-28T04:05:56;-5.20;99.90
9977;DHT22;5029;47.378;11.776;2023-02-28T04:11:06;-5.20;99.90
9977;DHT22;5029;47.378;11.776;2023-02-28T04:16:11;-4.90;99.90
9977;DHT22;5029;47.378;11.776;2023-02-28T04:21:35;-4.50;99.90
9977;DHT22;5029;47.378;11.776;2023-02-28T04:26:41;-4.70;99.90
9977;DHT22;5029;47.378;11.776;2023-02-28T04:31:45;-5.10;99.90
9977;DHT22;5029;47.378;11.776;2023-02-28T04:36:49;-5.30;99.90
9977;DHT22;5029;47.378;11.776;2023-02-28T04:42:12;-4.90;99.90
9977;DHT22;5029;47.378;11.776;2023-02-28T04:47:16;-5.20;99.90
9977;DHT22;5029;47.378;11.776;2023-02-28T04:52:19;-5.10;99.90
9977;DHT22;5029;47.378;11.776;2023-02-28T04:57:24;-4.70;99.90
9977;DHT22;5029;47.378;11.776;2023-02-28T05:02:27;-5.00;99.90
9977;DHT22;5029;47.378;11.776;2023-02-28T05:07:31;-5.00;99.90
9977;DHT22;5029;47.378;11.776;2023-02-28T05:12:35;-5.10;99.90
9977;DHT22;5029;47.378;11.776;2023-02-28T05:17:39;-5.00;99.90
9977;DHT22;5029;47.378;11.776;2023-02-28T05:22:42;-4.70;99.90
9977;DHT22;5029;47.378;11.776;2023-02-28T05:27:47;-4.80;99.90
9977;DHT22;5029;47.378;11.776;2023-02-28T05:32:51;-4.80;99.90
9977;DHT22;5029;47.378;11.776;2023-02-28T05:37:55;-5.10;99.90
9977;DHT22;5029;47.378;11.776;2023-02-28T05:42:59;-5.10;99.90
9977;DHT22;5029;47.378;11.776;2023-02-28T05:48:03;-5.30;99.90
9977;DHT22;5029;47.378;11.776;2023-02-28T05:53:06;-5.30;99.90
9977;DHT22;5029;47.378;11.776;2023-02-28T05:58:11;-5.60;99.90
9977;DHT22;5029;47.378;11.776;2023-02-28T06:03:14;-5.20;99.90
9977;DHT22;5029;47.378;11.776;2023-02-28T06:08:17;-4.80;99.90
9977;DHT22;5029;47.378;11.776;2023-02-28T06:13:22;-5.40;99.90
9977;DHT22;5029;47.378;11.776;2023-02-28T06:18:26;-5.20;99.90
9977;DHT22;5029;47.378;11.776;2023-02-28T06:23:29;-5.30;99.90
9977;DHT22;5029;47.378;11.776;2023-02-28T06:28:34;-5.50;99.90
9977;DHT22;5029;47.378;11.776;2023-02-28T06:33:38;-5.40;99.90
9977;DHT22;5029;47.378;11.776;2023-02-28T06:38:42;-5.20;99.90
9977;DHT22;5029;47.378;11.776;2023-02-28T06:43:47;-5.20;99.90
9977;DHT22;5029;47.378;11.776;2023-02-28T06:48:51;-4.70;99.90
9977;DHT22;5029;47.378;11.776;2023-02-28T06:53:54;-4.80;99.90
9977;DHT22;5029;47.378;11.776;2023-02-28T06:58:58;-4.80;99.90
9977;DHT22;5029;47.378;11.776;2023-02-28T07:04:03;-5.20;99.90
9977;DHT22;5029;47.378;11.776;2023-02-28T07:09:07;-5.00;99.90
9977;DHT22;5029;47.378;11.776;2023-02-28T07:14:14;-4.60;99.90
9977;DHT22;5029;47.378;11.776;2023-02-28T07:19:17;-4.40;99.90
9977;DHT22;5029;47.378;11.776;2023-02-28T07:24:20;-4.40;99.90
9977;DHT22;5029;47.378;11.776;2023-02-28T07:29:29;-4.50;99.90
9977;DHT22;5029;47.378;11.776;2023-02-28T07:34:32;-4.40;99.90
9977;DHT22;5029;47.378;11.776;2023-02-28T07:39:35;-4.60;99.90
9977;DHT22;5029;47.378;11.776;2023-02-28T07:44:40;-4.50;99.90
9977;DHT22;5029;47.378;11.776;2023-02-28T07:49:46;-4.30;99.90
9977;DHT22;5029;47.378;11.776;2023-02-28T07:54:49;-4.50;99.90
9977;DHT22;5029;47.378;11.776;2023-02-28T07:59:54;-4.20;99.90
9977;DHT22;5029;47.378;11.776;2023-02-28T08:04:58;-4.70;99.90
9977;DHT22;5029;47.378;11.776;2023-02-28T08:10:03;-4.60;99.90
9977;DHT22;5029;47.378;11.776;2023-02-28T08:15:10;-4.50;99.90
9977;DHT22;5029;47.378;11.776;2023-02-28T08:20:13;-4.20;99.90
9977;DHT22;5029;47.378;11.776;2023-02-28T08:25:17;-4.10;99.90
9977;DHT22;5029;47.378;11.776;2023-02-28T08:30:22;-4.30;99.90
9977;DHT22;5029;47.378;11.776;2023-02-28T08:35:25;-4.70;99.90
9977;DHT22;5029;47.378;11.776;2023-02-28T08:40:29;-4.40;99.90
9977;DHT22;5029;47.378;11.776;2023-02-28T08:45:34;-3.80;99.90
9977;DHT22;5029;47.378;11.776;2023-02-28T08:50:37;-3.60;99.90
9977;DHT22;5029;47.378;11.776;2023-02-28T08:55:40;-3.40;99.90
9977;DHT22;5029;47.378;11.776;2023-02-28T09:00:45;-3.70;99.90
9977;DHT22;5029;47.378;11.776;2023-02-28T09:05:59;-3.60;99.90
9977;DHT22;5029;47.378;11.776;2023-02-28T09:11:02;-2.70;99.90
9977;DHT22;5029;47.378;11.776;2023-02-28T09:16:10;-2.40;99.90
9977;DHT22;5029;47.378;11.776;2023-02-28T09:21:17;-2.30;99.90
9977;DHT22;5029;47.378;11.776;2023-02-28T09:26:23;-2.00;99.90
9977;DHT22;5029;47.378;11.776;2023-02-28T09:31:28;-2.20;99.90
9977;DHT22;5029;47.378;11.776;2023-02-28T09:36:31;-2.00;99.90
9977;DHT22;5029;47.378;11.776;2023-02-28T09:41:48;-1.90;99.90
9977;DHT22;5029;47.378;11.776;2023-02-28T09:46:58;-1.60;99.90
9977;DHT22;5029;47.378;11.776;2023-02-28T09:52:04;-1.10;99.90
9977;DHT22;5029;47.378;11.776;2023-02-28T09:57:19;-1.10;99.90
9977;DHT22;5029;47.378;11.776;2023-02-28T10:03:06;-1.30;99.90
9977;DHT22;5029;47.378;11.776;2023-02-28T10:08:14;-1.40;99.90
9977;DHT22;5029;47.378;11.776;2023-02-28T10:13:25;-0.90;99.90
9977;DHT22;5029;47.378;11.776;2023-02-28T10:18:38;-0.60;99.90
9977;DHT22;5029;47.378;11.776;2023-02-28T10:23:42;-0.40;99.90
9977;DHT22;5029;47.378;11.776;2023-02-28T10:28:46;-0.40;99.90
9977;DHT22;5029;47.378;11.776;2023-02-28T10:33:51;-0.40;99.90
9977;DHT22;5029;47.378;11.776;2023-02-28T10:38:54;-0.40;99.90
9977;DHT22;5029;47.378;11.776;2023-02-28T10:44:14;-0.30;99.90
9977;DHT22;5029;47.378;11.776;2023-02-28T10:49:21;-0.10;99.90
9977;DHT22;5029;47.378;11.776;2023-02-28T10:54:29;0.10;99.90
9977;DHT22;5029;47.378;11.776;2023-02-28T10:59:33;0.30;99.90
9977;DHT22;5029;47.378;11.776;2023-02-28T11:04:37;0.30;99.90
9977;DHT22;5029;47.378;11.776;2023-02-28T11:09:45;0.10;99.90
9977;DHT22;5029;47.378;11.776;2023-02-28T11:14:51;0.20;99.90
9977;DHT22;5029;47.378;11.776;2023-02-28T11:19:59;0.40;99.90
9977;DHT22;5029;47.378;11.776;2023-02-28T11:25:09;0.60;99.90
9977;DHT22;5029;47.378;11.776;2023-02-28T11:30:32;0.50;99.90
9977;DHT22;5029;47.378;11.776;2023-02-28T11:35:39;0.70;99.90
9977;DHT22;5029;47.378;11.776;2023-02-28T11:40:47;0.70;99.90
9977;DHT22;5029;47.378;11.776;2023-02-28T11:46:04;0.70;99.90
9977;DHT22;5029;47.378;11.776;2023-02-28T11:51:15;0.80;99.90
9977;DHT22;5029;47.378;11.776;2023-02-28T11:56:25;0.80;99.90
9977;DHT22;5029;47.378;11.776;2023-02-28T12:02:01;1.00;99.90
9977;DHT22;5029;47.378;11.776;2023-02-28T12:07:15;0.90;99.90
9977;DHT22;5029;47.378;11.776;2023-02-28T12:12:31;1.30;99.90
9977;DHT22;5029;47.378;11.776;2023-02-28T12:17:50;1.50;99.90
9977;DHT22;5029;47.378;11.776;2023-02-28T12:28:27;1.70;99.90
9977;DHT22;5029;47.378;11.776;2023-02-28T12:33:35;1.90;99.90
9977;DHT22;5029;47.378;11.776;2023-02-28T12:38:45;1.90;99.90
9977;DHT22;5029;47.378;11.776;2023-02-28T12:43:55;2.10;99.90
9977;DHT22;5029;47.378;11.776;2023-02-28T12:49:04;1.90;99.90
9977;DHT22;5029;47.378;11.776;2023-02-28T12:54:16;2.10;99.90
9977;DHT22;5029;47.378;11.776;2023-02-28T12:59:27;2.10;99.90
9977;DHT22;5029;47.378;11.776;2023-02-28T13:05:19;2.10;99.90
9977;DHT22;5029;47.378;11.776;2023-02-28T13:10:40;1.90;99.90
9977;DHT22;5029;47.378;11.776;2023-02-28T13:15:58;2.00;99.90
9977;DHT22;5029;47.378;11.776;2023-02-28T13:21:04;2.00;99.90
9977;DHT22;5029;47.378;11.776;2023-02-28T13:26:09;2.00;99.90
9977;DHT22;5029;47.378;11.776;2023-02-28T13:31:17;2.10;99.90
9977;DHT22;5029;47.378;11.776;2023-02-28T13:36:26;2.20;99.90
9977;DHT22;5029;47.378;11.776;2023-02-28T13:41:44;2.50;99.90
9977;DHT22;5029;47.378;11.776;2023-02-28T13:47:20;2.70;99.90
9977;DHT22;5029;47.378;11.776;2023-02-28T13:52:26;2.60;99.90
9977;DHT22;5029;47.378;11.776;2023-02-28T13:57:41;2.90;99.90
9977;DHT22;5029;47.378;11.776;2023-02-28T14:03:11;2.80;99.90
9977;DHT22;5029;47.378;11.776;2023-02-28T14:08:20;3.10;99.90
9977;DHT22;5029;47.378;11.776;2023-02-28T14:13:41;2.70;99.90
9977;DHT22;5029;47.378;11.776;2023-02-28T14:18:50;2.40;99.90
9977;DHT22;5029;47.378;11.776;2023-02-28T14:30:11;2.50;99.90
9977;DHT22;5029;47.378;11.776;2023-02-28T14:35:39;2.70;99.90
9977;DHT22;5029;47.378;11.776;2023-02-28T14:40:45;2.90;99.90
9977;DHT22;5029;47.378;11.776;2023-02-28T14:45:53;3.10;99.90
9977;DHT22;5029;47.378;11.776;2023-02-28T14:50:59;2.80;99.90
9977;DHT22;5029;47.378;11.776;2023-02-28T14:56:03;2.60;99.90
9977;DHT22;5029;47.378;11.776;2023-02-28T15:01:11;2.80;99.90
9977;DHT22;5029;47.378;11.776;2023-02-28T15:06:16;2.40;99.90
9977;DHT22;5029;47.378;11.776;2023-02-28T15:11:20;2.50;99.90
9977;DHT22;5029;47.378;11.776;2023-02-28T15:16:28;2.40;99.90
9977;DHT22;5029;47.378;11.776;2023-02-28T15:21:35;2.30;99.90
9977;DHT22;5029;47.378;11.776;2023-02-28T15:26:41;2.20;99.90
9977;DHT22;5029;47.378;11.776;2023-02-28T15:31:50;1.90;99.90
9977;DHT22;5029;47.378;11.776;2023-02-28T15:36:58;1.70;99.90
9977;DHT22;5029;47.378;11.776;2023-02-28T15:42:11;1.30;99.90
9977;DHT22;5029;47.378;11.776;2023-02-28T15:47:19;1.10;99.90
9977;DHT22;5029;47.378;11.776;2023-02-28T15:52:27;0.90;99.90
9977;DHT22;5029;47.378;11.776;2023-02-28T15:57:33;0.70;99.90
9977;DHT22;5029;47.378;11.776;2023-02-28T16:02:38;0.60;99.90
9977;DHT22;5029;47.378;11.776;2023-02-28T16:07:43;0.40;99.90
9977;DHT22;5029;47.378;11.776;2023-02-28T16:12:46;0.10;99.90
9977;DHT22;5029;47.378;11.776;2023-02-28T16:17:52;0.00;99.90
9977;DHT22;5029;47.378;11.776;2023-02-28T16:22:56;-0.10;99.90
9977;DHT22;5029;47.378;11.776;2023-02-28T16:28:03;-0.40;99.90
9977;DHT22;5029;47.378;11.776;2023-02-28T16:33:09;-0.50;99.90
9977;DHT22;5029;47.378;11.776;2023-02-28T16:38:13;-0.70;99.90
9977;DHT22;5029;47.378;11.776;2023-02-28T16:43:18;-0.80;99.90
9977;DHT22;5029;47.378;11.776;2023-02-28T16:48:25;-0.80;99.90
9977;DHT22;5029;47.378;11.776;2023-02-28T16:53:29;-0.90;99.90
9977;DHT22;5029;47.378;11.776;2023-02-28T16:58:33;-1.00;99.90
9977;DHT22;5029;47.378;11.776;2023-02-28T17:03:40;-1.10;99.90
9977;DHT22;5029;47.378;11.776;2023-02-28T17:08:44;-1.20;99.90
9977;DHT22;5029;47.378;11.776;2023-02-28T17:13:47;-1.40;99.90
9977;DHT22;5029;47.378;11.776;2023-02-28T17:18:54;-1.40;99.90
9977;DHT22;5029;47.378;11.776;2023-02-28T17:23:58;-1.40;99.90
9977;DHT22;5029;47.378;11.776;2023-02-28T17:29:02;-1.50;99.90
9977;DHT22;5029;47.378;11.776;2023-02-28T17:34:08;-1.50;99.90
9977;DHT22;5029;47.378;11.776;2023-02-28T17:39:14;-1.50;99.90
9977;DHT22;5029;47.378;11.776;2023-02-28T17:44:24;-1.60;99.90
9977;DHT22;5029;47.378;11.776;2023-02-28T17:49:30;-1.80;99.90
9977;DHT22;5029;47.378;11.776;2023-02-28T17:54:35;-1.80;99.90
9977;DHT22;5029;47.378;11.776;2023-02-28T17:59:39;-1.90;99.90
9977;DHT22;5029;47.378;11.776;2023-02-28T18:04:45;-1.90;99.90
9977;DHT22;5029;47.378;11.776;2023-02-28T18:09:49;-1.80;99.90
9977;DHT22;5029;47.378;11.776;2023-02-28T18:14:54;-1.90;99.90
9977;DHT22;5029;47.378;11.776;2023-02-28T18:19:59;-1.90;99.90
9977;DHT22;5029;47.378;11.776;2023-02-28T18:25:04;-2.00;99.90
9977;DHT22;5029;47.378;11.776;2023-02-28T18:30:12;-2.00;99.90
9977;DHT22;5029;47.378;11.776;2023-02-28T18:35:19;-2.00;99.90
9977;DHT22;5029;47.378;11.776;2023-02-28T18:40:37;-2.00;99.90
9977;DHT22;5029;47.378;11.776;2023-02-28T18:45:42;-2.00;99.90
9977;DHT22;5029;47.378;11.776;2023-02-28T18:50:52;-2.10;99.90
9977;DHT22;5029;47.378;11.776;2023-02-28T18:55:59;-2.20;99.90
9977;DHT22;5029;47.378;11.776;2023-02-28T19:01:11;-2.20;99.90
9977;DHT22;5029;47.378;11.776;2023-02-28T19:06:23;-2.20;99.90
9977;DHT22;5029;47.378;11.776;2023-02-28T19:11:28;-2.20;99.90
9977;DHT22;5029;47.378;11.776;2023-02-28T19:16:34;-2.20;99.90
9977;DHT22;5029;47.378;11.776;2023-02-28T19:21:41;-2.30;99.90
9977;DHT22;5029;47.378;11.776;2023-02-28T19:26:46;-2.20;99.90
9977;DHT22;5029;47.378;11.776;2023-02-28T19:31:50;-2.30;99.90
9977;DHT22;5029;47.378;11.776;2023-02-28T19:36:57;-2.30;99.90
9977;DHT22;5029;47.378;11.776;2023-02-28T19:42:02;-2.30;99.90
9977;DHT22;5029;47.378;11.776;2023-02-28T19:47:09;-2.20;99.90
9977;DHT22;5029;47.378;11.776;2023-02-28T19:52:16;-2.30;99.90
9977;DHT22;5029;47.378;11.776;2023-02-28T19:57:21;-2.20;99.90
9977;DHT22;5029;47.378;11.776;2023-02-28T20:02:28;-2.30;99.90
9977;DHT22;5029;47.378;11.776;2023-02-28T20:07:36;-2.40;99.90
9977;DHT22;5029;47.378;11.776;2023-02-28T20:12:42;-2.40;99.90
9977;DHT22;5029;47.378;11.776;2023-02-28T20:17:48;-2.40;99.90
9977;DHT22;5029;47.378;11.776;2023-02-28T20:22:55;-2.30;99.90
9977;DHT22;5029;47.378;11.776;2023-02-28T20:28:00;-2.30;99.90
9977;DHT22;5029;47.378;11.776;2023-02-28T20:33:04;-2.30;99.90
9977;DHT22;5029;47.378;11.776;2023-02-28T20:38:12;-2.20;99.90
9977;DHT22;5029;47.378;11.776;2023-02-28T20:43:22;-2.10;99.90
9977;DHT22;5029;47.378;11.776;2023-02-28T20:48:27;-2.10;99.90
9977;DHT22;5029;47.378;11.776;2023-02-28T20:53:34;-2.10;99.90
9977;DHT22;5029;47.378;11.776;2023-02-28T20:58:39;-2.10;99.90
9977;DHT22;5029;47.378;11.776;2023-02-28T21:03:43;-2.00;99.90
9977;DHT22;5029;47.378;11.776;2023-02-28T21:08:49;-2.00;99.90
9977;DHT22;5029;47.378;11.776;2023-02-28T21:13:53;-1.90;99.90
9977;DHT22;5029;47.378;11.776;2023-02-28T21:18:58;-1.90;99.90
9977;DHT22;5029;47.378;11.776;2023-02-28T21:24:06;-1.80;99.90
9977;DHT22;5029;47.378;11.776;2023-02-28T21:29:11;-1.80;99.90
9977;DHT22;5029;47.378;11.776;2023-02-28T21:34:16;-1.80;99.90
9977;DHT22;5029;47.378;11.776;2023-02-28T21:39:24;-1.90;99.90
9977;DHT22;5029;47.378;11.776;2023-02-28T21:44:31;-1.80;99.90
9977;DHT22;5029;47.378;11.776;2023-02-28T21:49:37;-1.80;99.90
9977;DHT22;5029;47.378;11.776;2023-02-28T21:54:42;-1.80;99.90
9977;DHT22;5029;47.378;11.776;2023-02-28T21:59:45;-1.80;99.90
9977;DHT22;5029;47.378;11.776;2023-02-28T22:04:49;-1.70;99.90
9977;DHT22;5029;47.378;11.776;2023-02-28T22:09:54;-1.90;99.90
9977;DHT22;5029;47.378;11.776;2023-02-28T22:14:57;-1.80;99.90
9977;DHT22;5029;47.378;11.776;2023-02-28T22:20:00;-1.70;99.90
9977;DHT22;5029;47.378;11.776;2023-02-28T22:25:07;-1.70;99.90
9977;DHT22;5029;47.378;11.776;2023-02-28T22:30:11;-1.70;99.90
9977;DHT22;5029;47.378;11.776;2023-02-28T22:35:15;-1.70;99.90
9977;DHT22;5029;47.378;11.776;2023-02-28T22:40:21;-1.70;99.90
9977;DHT22;5029;47.378;11.776;2023-02-28T22:45:25;-1.70;99.90
9977;DHT22;5029;47.378;11.776;2023-02-28T22:50:28;-1.70;99.90
9977;DHT22;5029;47.378;11.776;2023-02-28T22:55:33;-1.70;99.90
9977;DHT22;5029;47.378;11.776;2023-02-28T23:00:36;-1.70;99.90
9977;DHT22;5029;47.378;11.776;2023-02-28T23:05:40;-1.70;99.90
9977;DHT22;5029;47.378;11.776;2023-02-28T23:10:45;-1.70;99.90
9977;DHT22;5029;47.378;11.776;2023-02-28T23:15:48;-1.60;99.90
9977;DHT22;5029;47.378;11.776;2023-02-28T23:20:51;-1.60;99.90
9977;DHT22;5029;47.378;11.776;2023-02-28T23:25:59;-1.60;99.90
9977;DHT22;5029;47.378;11.776;2023-02-28T23:31:05;-1.60;99.90
9977;DHT22;5029;47.378;11.776;2023-02-28T23:36:22;-1.60;99.90
9977;DHT22;5029;47.378;11.776;2023-02-28T23:41:27;-1.60;99.90
9977;DHT22;5029;47.378;11.776;2023-02-28T23:46:31;-1.50;99.90
9977;DHT22;5029;47.378;11.776;2023-02-28T23:51:34;-1.50;99.90
9977;DHT22;5029;47.378;11.776;2023-02-28T23:56:39;-1.50;99.90
